Welcome to Northern Hawkes Bay. New Zealand.
PWS Header
      nz Flag



Hit Counter


W3C Valid W3C Valid logo


    Wairoa

Select any of the Stations below to visit their websites.










Historic Data from Weather Underground
Select the location of interest below. Wairoa is the default. Please have patience, this Data is slow to load in.
Northern Hawkes Bay Historical Data
Daily Summary for September 5, 2017 Units:  Metric    English   Both
« Previous Day
Next Day »
Daily Weekly Monthly Yearly Custom
  High: Low: Average:
Temperature: 19.1 °C 4.5 °C 11.6 °C
Dew Point: 9.6 °C 1.9 °C 6.7 °C
Humidity: 99% 38% 75%
Wind Speed: 20.9km/h 0.0km/h 5.8km/h
Wind Gust: 29.4km/h - -
Wind- - WSW
Pressure: 1015.5 hPa 1011.1 hPa -
Precipitation: 0.0 mm    
Historical Graphs
 
 
Tabular Data for September 5, 2017
Time Temperature Dew Point Pressure Wind Wind Speed Wind Gust Humidity Rainfall Rate (Hourly) solar
00:01 7.9 °C 7.4 °C 1012.4 hPa NNW 3.5 km/h 6.1 km/h 97% 0.0 mm 0 W/m2
00:06 7.8 °C 7.3 °C 1012.4 hPa NNW 3.5 km/h 7.2 km/h 97% 0.0 mm 0 W/m2
00:11 7.8 °C 7.3 °C 1012.4 hPa NNW 5.0 km/h 7.2 km/h 97% 0.0 mm 0 W/m2
00:16 7.7 °C 7.3 °C 1012.4 hPa NNW 5.0 km/h 8.7 km/h 97% 0.0 mm 0 W/m2
00:21 7.7 °C 7.3 °C 1012.4 hPa NNW 2.6 km/h 8.7 km/h 97% 0.0 mm 0 W/m2
00:26 7.6 °C 7.2 °C 1012.1 hPa NNW 5.0 km/h 8.7 km/h 97% 0.0 mm 0 W/m2
00:31 7.5 °C 7.1 °C 1012.4 hPa NNW 5.0 km/h 7.2 km/h 97% 0.0 mm 0 W/m2
00:36 7.4 °C 6.9 °C 1012.4 hPa NW 3.5 km/h 7.2 km/h 97% 0.0 mm 0 W/m2
00:41 7.3 °C 6.8 °C 1012.4 hPa NW 3.5 km/h 7.2 km/h 97% 0.0 mm 0 W/m2
00:46 7.3 °C 6.8 °C 1012.4 hPa NNW 5.0 km/h 6.1 km/h 97% 0.0 mm 0 W/m2
00:51 7.3 °C 6.8 °C 1012.1 hPa NNW 6.1 km/h 11.1 km/h 97% 0.0 mm 0 W/m2
00:56 7.4 °C 6.9 °C 1012.4 hPa NNW 8.7 km/h 11.1 km/h 97% 0.0 mm 0 W/m2
01:01 7.4 °C 6.9 °C 1012.4 hPa NW 7.2 km/h 12.2 km/h 97% 0.0 mm 0 W/m2
01:06 7.2 °C 6.8 °C 1012.1 hPa NW 7.2 km/h 12.2 km/h 97% 0.0 mm 0 W/m2
01:11 7.0 °C 6.6 °C 1012.4 hPa NNW 5.0 km/h 11.1 km/h 97% 0.0 mm 0 W/m2
01:16 6.9 °C 6.6 °C 1012.1 hPa NNW 7.2 km/h 11.1 km/h 98% 0.0 mm 0 W/m2
01:21 6.8 °C 6.5 °C 1012.1 hPa NW 7.2 km/h 11.1 km/h 98% 0.0 mm 0 W/m2
01:26 6.8 °C 6.5 °C 1012.1 hPa NW 6.1 km/h 11.1 km/h 98% 0.0 mm 0 W/m2
01:31 6.7 °C 6.4 °C 1012.4 hPa NW 5.0 km/h 11.1 km/h 98% 0.0 mm 0 W/m2
01:36 6.7 °C 6.4 °C 1012.1 hPa NNW 3.5 km/h 11.1 km/h 98% 0.0 mm 0 W/m2
01:41 6.6 °C 6.3 °C 1012.1 hPa NNW 5.0 km/h 9.7 km/h 98% 0.0 mm 0 W/m2
01:46 6.5 °C 6.2 °C 1012.1 hPa NNW 5.0 km/h 9.7 km/h 98% 0.0 mm 0 W/m2
01:56 6.4 °C 6.1 °C 1012.1 hPa NNW 5.0 km/h 7.2 km/h 98% 0.0 mm 0 W/m2
02:01 6.4 °C 6.1 °C 1012.1 hPa NNW 3.5 km/h 7.2 km/h 98% 0.0 mm 0 W/m2
02:06 6.4 °C 6.1 °C 1012.1 hPa NNW 5.0 km/h 7.2 km/h 98% 0.0 mm 0 W/m2
02:11 6.2 °C 5.9 °C 1012.1 hPa NNW 3.5 km/h 7.2 km/h 98% 0.0 mm 0 W/m2
02:16 6.2 °C 5.9 °C 1012.1 hPa North 5.0 km/h 7.2 km/h 98% 0.0 mm 0 W/m2
02:21 6.2 °C 5.9 °C 1012.1 hPa North 3.5 km/h 8.7 km/h 98% 0.0 mm 0 W/m2
02:26 6.1 °C 5.8 °C 1012.1 hPa NNW 2.6 km/h 8.7 km/h 98% 0.0 mm 0 W/m2
02:31 6.1 °C 5.8 °C 1012.1 hPa North 3.5 km/h 7.2 km/h 98% 0.0 mm 0 W/m2
02:36 6.1 °C 5.8 °C 1012.1 hPa North 6.1 km/h 9.7 km/h 98% 0.0 mm 0 W/m2
02:41 6.0 °C 5.7 °C 1012.1 hPa NNW 5.0 km/h 9.7 km/h 98% 0.0 mm 0 W/m2
02:46 5.9 °C 5.8 °C 1012.1 hPa NNW 5.0 km/h 9.7 km/h 99% 0.0 mm 0 W/m2
02:51 5.8 °C 5.7 °C 1012.1 hPa NNW 3.5 km/h 8.7 km/h 99% 0.0 mm 0 W/m2
02:56 5.7 °C 5.6 °C 1012.1 hPa NNW 5.0 km/h 8.7 km/h 99% 0.0 mm 0 W/m2
03:01 5.6 °C 5.4 °C 1012.1 hPa NNW 6.1 km/h 8.7 km/h 99% 0.0 mm 0 W/m2
03:06 5.5 °C 5.3 °C 1012.1 hPa NNW 5.0 km/h 8.7 km/h 99% 0.0 mm 0 W/m2
03:11 5.4 °C 5.3 °C 1012.1 hPa NNW 5.0 km/h 8.7 km/h 99% 0.0 mm 0 W/m2
03:16 5.3 °C 5.2 °C 1012.1 hPa NNW 5.0 km/h 7.2 km/h 99% 0.0 mm 0 W/m2
03:21 5.3 °C 5.2 °C 1012.1 hPa NNW 5.0 km/h 7.2 km/h 99% 0.0 mm 0 W/m2
03:26 5.3 °C 5.2 °C 1012.1 hPa NNW 3.5 km/h 9.7 km/h 99% 0.0 mm 0 W/m2
03:31 5.2 °C 5.1 °C 1012.1 hPa NNW 5.0 km/h 9.7 km/h 99% 0.0 mm 0 W/m2
03:36 5.1 °C 4.9 °C 1012.1 hPa NNW 2.6 km/h 8.7 km/h 99% 0.0 mm 0 W/m2
03:41 5.1 °C 4.9 °C 1012.4 hPa NNW 5.0 km/h 6.1 km/h 99% 0.0 mm 0 W/m2
03:46 5.1 °C 4.9 °C 1012.1 hPa NNW 6.1 km/h 9.7 km/h 99% 0.0 mm 0 W/m2
03:51 5.1 °C 4.9 °C 1012.4 hPa NNW 9.7 km/h 12.2 km/h 99% 0.0 mm 0 W/m2
03:56 5.2 °C 5.1 °C 1012.4 hPa NNW 8.7 km/h 13.4 km/h 99% 0.0 mm 0 W/m2
04:01 5.2 °C 5.1 °C 1012.4 hPa NNW 3.5 km/h 13.4 km/h 99% 0.0 mm 0 W/m2
04:06 5.2 °C 5.1 °C 1012.8 hPa NNW 2.6 km/h 12.2 km/h 99% 0.0 mm 0 W/m2
04:11 5.2 °C 5.1 °C 1012.4 hPa NNW 6.1 km/h 7.2 km/h 99% 0.0 mm 0 W/m2
04:16 5.2 °C 5.1 °C 1012.8 hPa NNW 5.0 km/h 9.7 km/h 99% 0.0 mm 0 W/m2
04:21 5.2 °C 5.1 °C 1012.8 hPa NNW 7.2 km/h 9.7 km/h 99% 0.0 mm 0 W/m2
04:26 5.2 °C 5.1 °C 1012.8 hPa North 7.2 km/h 11.1 km/h 99% 0.0 mm 0 W/m2
04:31 5.2 °C 5.1 °C 1012.8 hPa NNW 3.5 km/h 11.1 km/h 99% 0.0 mm 0 W/m2
04:36 5.1 °C 4.9 °C 1012.8 hPa NNW 6.1 km/h 11.1 km/h 99% 0.0 mm 0 W/m2
04:41 5.1 °C 4.9 °C 1012.8 hPa NNW 7.2 km/h 11.1 km/h 99% 0.0 mm 0 W/m2
04:46 5.0 °C 4.8 °C 1012.8 hPa NNW 6.1 km/h 11.1 km/h 99% 0.0 mm 0 W/m2
04:51 5.0 °C 4.8 °C 1012.8 hPa NNW 5.0 km/h 11.1 km/h 99% 0.0 mm 0 W/m2
04:56 4.9 °C 4.8 °C 1012.8 hPa NNW 5.0 km/h 7.2 km/h 99% 0.0 mm 0 W/m2
05:01 4.9 °C 4.8 °C 1012.8 hPa NNW 6.1 km/h 9.7 km/h 99% 0.0 mm 0 W/m2
05:06 4.9 °C 4.8 °C 1013.1 hPa NNW 7.2 km/h 11.1 km/h 99% 0.0 mm 0 W/m2
05:11 4.9 °C 4.8 °C 1013.1 hPa NNW 7.2 km/h 11.1 km/h 99% 0.0 mm 0 W/m2
05:16 5.0 °C 4.8 °C 1013.1 hPa NNW 7.2 km/h 14.8 km/h 99% 0.0 mm 0 W/m2
05:21 5.0 °C 4.8 °C 1012.8 hPa NNW 3.5 km/h 14.8 km/h 99% 0.0 mm 0 W/m2
05:26 5.0 °C 4.8 °C 1013.1 hPa NNW 8.7 km/h 11.1 km/h 99% 0.0 mm 0 W/m2
05:31 4.9 °C 4.8 °C 1013.1 hPa NNW 6.1 km/h 11.1 km/h 99% 0.0 mm 0 W/m2
05:36 4.9 °C 4.8 °C 1013.1 hPa NNW 7.2 km/h 11.1 km/h 99% 0.0 mm 0 W/m2
05:41 4.9 °C 4.8 °C 1013.1 hPa NNW 6.1 km/h 12.2 km/h 99% 0.0 mm 0 W/m2
05:46 4.9 °C 4.8 °C 1013.4 hPa NW 8.7 km/h 14.8 km/h 99% 0.0 mm 0 W/m2
05:51 4.8 °C 4.7 °C 1013.4 hPa NW 6.1 km/h 14.8 km/h 99% 0.0 mm 0 W/m2
05:56 4.7 °C 4.6 °C 1013.4 hPa NNW 6.1 km/h 14.8 km/h 99% 0.0 mm 0 W/m2
06:02 4.7 °C 4.6 °C 1013.4 hPa NNW 6.1 km/h 14.8 km/h 99% 0.0 mm 0 W/m2
06:07 4.7 °C 4.6 °C 1013.8 hPa NNW 5.0 km/h 14.8 km/h 99% 0.0 mm 0 W/m2
06:12 4.7 °C 4.6 °C 1013.8 hPa NNW 6.1 km/h 13.4 km/h 99% 0.0 mm 0 W/m2
06:17 4.7 °C 4.6 °C 1013.8 hPa North 5.0 km/h 11.1 km/h 99% 0.0 mm 0 W/m2
06:22 4.6 °C 4.4 °C 1013.8 hPa North 5.0 km/h 11.1 km/h 99% 0.0 mm 0 W/m2
06:27 4.6 °C 4.4 °C 1013.8 hPa NNW 5.0 km/h 11.1 km/h 99% 0.0 mm 0 W/m2
06:32 4.6 °C 4.4 °C 1013.4 hPa NNW 5.0 km/h 11.1 km/h 99% 0.0 mm 2 W/m2
06:37 4.5 °C 4.3 °C 1013.8 hPa NNW 5.0 km/h 9.7 km/h 99% 0.0 mm 4 W/m2
06:42 4.5 °C 4.3 °C 1013.8 hPa NNW 5.0 km/h 8.7 km/h 99% 0.0 mm 7 W/m2
06:47 4.5 °C 4.3 °C 1013.8 hPa NW 5.0 km/h 9.7 km/h 99% 0.0 mm 10 W/m2
06:52 4.5 °C 4.3 °C 1013.8 hPa NW 5.0 km/h 9.7 km/h 99% 0.0 mm 24 W/m2
06:57 4.8 °C 4.7 °C 1013.8 hPa NNW 7.2 km/h 11.1 km/h 99% 0.0 mm 56 W/m2
07:02 5.0 °C 4.8 °C 1013.8 hPa NNW 8.7 km/h 11.1 km/h 99% 0.0 mm 71 W/m2
07:07 5.1 °C 4.9 °C 1013.8 hPa NNW 9.7 km/h 12.2 km/h 99% 0.0 mm 82 W/m2
07:12 5.1 °C 4.9 °C 1014.1 hPa NNW 8.7 km/h 13.4 km/h 99% 0.0 mm 94 W/m2
07:17 5.3 °C 5.2 °C 1014.1 hPa NNW 9.7 km/h 14.8 km/h 99% 0.0 mm 107 W/m2
07:22 5.4 °C 5.3 °C 1014.1 hPa NNW 7.2 km/h 17.2 km/h 99% 0.0 mm 118 W/m2
07:27 5.6 °C 5.4 °C 1014.1 hPa NNW 6.1 km/h 17.2 km/h 99% 0.0 mm 130 W/m2
07:32 5.8 °C 5.7 °C 1014.4 hPa NNW 8.7 km/h 14.8 km/h 99% 0.0 mm 143 W/m2
07:37 5.9 °C 5.8 °C 1014.1 hPa NNW 7.2 km/h 14.8 km/h 99% 0.0 mm 154 W/m2
07:42 6.1 °C 5.8 °C 1014.4 hPa NNW 3.5 km/h 14.8 km/h 98% 0.0 mm 165 W/m2
07:47 6.3 °C 6.0 °C 1014.4 hPa North 11.1 km/h 13.4 km/h 98% 0.0 mm 173 W/m2
07:52 6.4 °C 6.1 °C 1014.4 hPa NNW 7.2 km/h 14.8 km/h 98% 0.0 mm 183 W/m2
07:57 6.7 °C 6.4 °C 1014.8 hPa North 6.1 km/h 14.8 km/h 98% 0.0 mm 191 W/m2
08:02 7.0 °C 6.6 °C 1014.8 hPa NNW 7.2 km/h 14.8 km/h 97% 0.0 mm 200 W/m2
08:07 7.2 °C 6.6 °C 1015.1 hPa NNW 8.7 km/h 13.4 km/h 96% 0.0 mm 211 W/m2
08:12 7.4 °C 6.5 °C 1015.1 hPa NNW 8.7 km/h 15.8 km/h 94% 0.0 mm 228 W/m2
08:17 7.5 °C 6.3 °C 1015.1 hPa NW 9.7 km/h 18.3 km/h 92% 0.0 mm 240 W/m2
08:22 7.7 °C 6.3 °C 1015.1 hPa NW 6.1 km/h 18.3 km/h 91% 0.0 mm 253 W/m2
08:27 8.0 °C 6.3 °C 1015.5 hPa NNW 7.2 km/h 17.2 km/h 89% 0.0 mm 267 W/m2
08:32 8.3 °C 6.3 °C 1015.1 hPa North 6.1 km/h 15.8 km/h 87% 0.0 mm 274 W/m2
08:37 8.6 °C 6.4 °C 1015.5 hPa NNW 8.7 km/h 14.8 km/h 86% 0.0 mm 278 W/m2
08:42 9.0 °C 6.4 °C 1015.1 hPa NNW 11.1 km/h 15.8 km/h 84% 0.0 mm 279 W/m2
08:47 9.1 °C 6.6 °C 1015.1 hPa NNW 5.0 km/h 15.8 km/h 84% 0.0 mm 283 W/m2
08:52 9.9 °C 7.3 °C 1015.1 hPa NNW 6.1 km/h 15.8 km/h 84% 0.0 mm 288 W/m2
08:57 10.1 °C 6.6 °C 1015.1 hPa NNE 5.0 km/h 11.1 km/h 79% 0.0 mm 287 W/m2
09:02 10.4 °C 6.7 °C 1015.1 hPa North 8.7 km/h 11.1 km/h 78% 0.0 mm 283 W/m2
09:07 10.0 °C 5.8 °C 1015.5 hPa North 9.7 km/h 17.2 km/h 75% 0.0 mm 279 W/m2
09:12 10.0 °C 5.9 °C 1015.1 hPa NNW 6.1 km/h 19.5 km/h 76% 0.0 mm 281 W/m2
09:17 10.5 °C 6.8 °C 1015.1 hPa NW 8.7 km/h 19.5 km/h 78% 0.0 mm 282 W/m2
09:18 10.5 °C 6.8 °C 1015.1 hPa NW 8.7 km/h 19.5 km/h 78% 0.0 mm 282 W/m2
09:23 10.7 °C 7.2 °C 1015.1 hPa NNW 5.0 km/h 12.2 km/h 79% 0.0 mm 284 W/m2
09:43 11.3 °C 7.6 °C 1015.5 hPa NNW 9.7 km/h 13.4 km/h 78% 0.0 mm 123 W/m2
09:48 11.1 °C 7.4 °C 1015.5 hPa NNW 6.1 km/h 13.4 km/h 78% 0.0 mm 61 W/m2
09:53 11.3 °C 7.8 °C 1015.5 hPa NNW 6.1 km/h 13.4 km/h 79% 0.0 mm 55 W/m2
09:58 11.5 °C 7.8 °C 1015.5 hPa NNW 3.5 km/h 12.2 km/h 78% 0.0 mm 52 W/m2
10:03 11.9 °C 8.0 °C 1015.5 hPa NNW 6.1 km/h 11.1 km/h 77% 0.0 mm 50 W/m2
10:08 12.1 °C 7.6 °C 1015.1 hPa North 5.0 km/h 12.2 km/h 74% 0.0 mm 49 W/m2
10:13 12.5 °C 7.8 °C 1015.5 hPa North 5.0 km/h 12.2 km/h 73% 0.0 mm 49 W/m2
10:18 12.8 °C 7.9 °C 1015.5 hPa North 9.7 km/h 12.2 km/h 72% 0.0 mm 49 W/m2
10:23 13.1 °C 7.9 °C 1015.5 hPa NNW 2.6 km/h 12.2 km/h 71% 0.0 mm 50 W/m2
10:28 13.9 °C 8.5 °C 1015.1 hPa North 5.0 km/h 12.2 km/h 70% 0.0 mm 57 W/m2
10:33 14.0 °C 7.3 °C 1015.1 hPa North 6.1 km/h 11.1 km/h 64% 0.0 mm 59 W/m2
10:38 14.2 °C 7.5 °C 1015.1 hPa North 7.2 km/h 11.1 km/h 64% 0.0 mm 226 W/m2
10:43 14.2 °C 7.1 °C 1015.1 hPa North 2.6 km/h 14.8 km/h 62% 0.0 mm 353 W/m2
10:48 15.0 °C 7.6 °C 1014.8 hPa North 7.2 km/h 14.8 km/h 61% 0.0 mm 374 W/m2
10:53 14.9 °C 6.4 °C 1014.8 hPa North 2.6 km/h 13.4 km/h 57% 0.0 mm 384 W/m2
10:58 15.2 °C 6.5 °C 1015.1 hPa NNE 5.0 km/h 13.4 km/h 56% 0.0 mm 395 W/m2
11:03 15.3 °C 6.6 °C 1014.8 hPa NE 1.1 km/h 9.7 km/h 56% 0.0 mm 402 W/m2
11:08 15.7 °C 6.9 °C 1015.1 hPa NE 6.1 km/h 11.1 km/h 56% 0.0 mm 409 W/m2
11:13 15.5 °C 5.4 °C 1014.8 hPa NE 5.0 km/h 13.4 km/h 51% 0.0 mm 412 W/m2
11:18 15.5 °C 5.4 °C 1014.8 hPa NE 7.2 km/h 13.4 km/h 51% 0.0 mm 80 W/m2
11:23 15.6 °C 5.2 °C 1014.8 hPa NNE 3.5 km/h 9.7 km/h 50% 0.0 mm 73 W/m2
11:28 15.8 °C 4.5 °C 1014.4 hPa NE 6.1 km/h 11.1 km/h 47% 0.0 mm 427 W/m2
11:33 15.8 °C 4.5 °C 1014.4 hPa NNE 2.6 km/h 13.4 km/h 47% 0.0 mm 431 W/m2
11:38 16.0 °C 4.1 °C 1014.4 hPa NNE 2.6 km/h 13.4 km/h 45% 0.0 mm 434 W/m2
11:43 16.2 °C 3.9 °C 1014.4 hPa NE 2.6 km/h 13.4 km/h 44% 0.0 mm 438 W/m2
11:48 16.2 °C 2.9 °C 1014.4 hPa NE 3.5 km/h 11.1 km/h 41% 0.0 mm 427 W/m2
11:53 16.1 °C 3.5 °C 1014.4 hPa ENE 5.0 km/h 13.4 km/h 43% 0.0 mm 440 W/m2
11:58 16.3 °C 1.9 °C 1014.4 hPa ENE 5.0 km/h 13.4 km/h 38% 0.0 mm 441 W/m2
12:03 16.6 °C 2.9 °C 1014.4 hPa ENE 5.0 km/h 12.2 km/h 40% 0.0 mm 445 W/m2
12:08 16.5 °C 2.5 °C 1014.1 hPa NE 7.2 km/h 13.4 km/h 39% 0.0 mm 443 W/m2
12:13 16.8 °C 2.8 °C 1014.1 hPa NE 7.2 km/h 13.4 km/h 39% 0.0 mm 446 W/m2
12:18 16.4 °C 2.1 °C 1014.1 hPa ENE 6.1 km/h 13.4 km/h 38% 0.0 mm 442 W/m2
12:23 16.5 °C 3.6 °C 1014.1 hPa East 2.6 km/h 13.4 km/h 42% 0.0 mm 444 W/m2
12:28 16.9 °C 3.6 °C 1013.8 hPa ENE 2.6 km/h 11.1 km/h 41% 0.0 mm 443 W/m2
12:33 17.2 °C 3.5 °C 1013.8 hPa ENE 7.2 km/h 12.2 km/h 40% 0.0 mm 443 W/m2
12:38 17.3 °C 3.6 °C 1013.8 hPa ENE 8.7 km/h 13.4 km/h 40% 0.0 mm 441 W/m2
12:43 17.1 °C 3.1 °C 1013.8 hPa ENE 8.7 km/h 13.4 km/h 39% 0.0 mm 439 W/m2
12:48 17.0 °C 3.3 °C 1013.8 hPa ENE 3.5 km/h 13.4 km/h 40% 0.0 mm 436 W/m2
12:53 16.9 °C 7.0 °C 1013.4 hPa East 3.5 km/h 12.2 km/h 52% 0.0 mm 430 W/m2
12:58 16.8 °C 7.4 °C 1013.4 hPa ESE 5.0 km/h 12.2 km/h 54% 0.0 mm 418 W/m2
13:03 17.1 °C 7.7 °C 1013.4 hPa ESE 3.5 km/h 11.1 km/h 54% 0.0 mm 358 W/m2
13:08 17.4 °C 7.2 °C 1013.4 hPa East 5.0 km/h 11.1 km/h 51% 0.0 mm 333 W/m2
13:13 17.3 °C 7.1 °C 1013.1 hPa East 11.1 km/h 13.4 km/h 51% 0.0 mm 334 W/m2
13:18 16.8 °C 6.9 °C 1013.1 hPa ENE 6.1 km/h 13.4 km/h 52% 0.0 mm 137 W/m2
13:23 16.6 °C 6.7 °C 1013.1 hPa East 7.2 km/h 13.4 km/h 52% 0.0 mm 329 W/m2
13:28 16.9 °C 7.6 °C 1013.4 hPa East 6.1 km/h 13.4 km/h 54% 0.0 mm 387 W/m2
13:33 17.2 °C 7.3 °C 1013.1 hPa East 7.2 km/h 12.2 km/h 52% 0.0 mm 337 W/m2
13:38 17.2 °C 7.0 °C 1012.8 hPa ENE 2.6 km/h 11.1 km/h 51% 0.0 mm 301 W/m2
13:43 17.4 °C 7.2 °C 1012.8 hPa ESE 7.2 km/h 14.8 km/h 51% 0.0 mm 390 W/m2
13:48 17.2 °C 7.0 °C 1012.8 hPa ESE 7.2 km/h 14.8 km/h 51% 0.0 mm 382 W/m2
13:53 16.6 °C 7.0 °C 1012.8 hPa ESE 6.1 km/h 14.8 km/h 53% 0.0 mm 373 W/m2
13:58 16.9 °C 7.0 °C 1012.8 hPa ESE 6.1 km/h 13.4 km/h 52% 0.0 mm 335 W/m2
14:03 16.8 °C 7.2 °C 1012.8 hPa ESE 8.7 km/h 14.8 km/h 53% 0.0 mm 364 W/m2
14:08 16.6 °C 6.7 °C 1012.8 hPa SE 6.1 km/h 15.8 km/h 52% 0.0 mm 334 W/m2
14:13 16.6 °C 6.7 °C 1012.8 hPa SE 8.7 km/h 15.8 km/h 52% 0.0 mm 298 W/m2
14:18 16.9 °C 7.3 °C 1013.1 hPa SE 5.0 km/h 15.8 km/h 53% 0.0 mm 123 W/m2
14:23 16.8 °C 6.6 °C 1012.8 hPa SE 7.2 km/h 15.8 km/h 51% 0.0 mm 73 W/m2
14:28 15.8 °C 6.5 °C 1012.8 hPa SE 7.2 km/h 13.4 km/h 54% 0.0 mm 81 W/m2
14:33 15.1 °C 6.1 °C 1012.8 hPa ESE 5.0 km/h 13.4 km/h 55% 0.0 mm 110 W/m2
14:38 15.0 °C 6.3 °C 1013.1 hPa SE 1.1 km/h 13.4 km/h 56% 0.0 mm 120 W/m2
14:43 15.0 °C 6.6 °C 1012.8 hPa ESE 3.5 km/h 9.7 km/h 57% 0.0 mm 134 W/m2
14:48 14.9 °C 7.4 °C 1012.8 hPa ESE 2.6 km/h 8.7 km/h 61% 0.0 mm 146 W/m2
14:53 16.2 °C 8.4 °C 1012.8 hPa ESE 3.5 km/h 6.1 km/h 60% 0.0 mm 196 W/m2
14:58 17.7 °C 8.6 °C 1012.4 hPa SE 1.1 km/h 7.2 km/h 55% 0.0 mm 303 W/m2
15:03 17.9 °C 8.4 °C 1012.4 hPa Calm   7.2 km/h 54% 0.0 mm 171 W/m2
15:08 18.3 °C 9.4 °C 1012.4 hPa SE 6.1 km/h 8.7 km/h 56% 0.0 mm 155 W/m2
15:19 16.5 °C 8.4 °C 1012.4 hPa Calm   11.1 km/h 59% 0.0 mm 152 W/m2
15:24 16.6 °C 8.3 °C 1012.4 hPa ESE 2.6 km/h 11.1 km/h 58% 0.0 mm 215 W/m2
15:29 17.6 °C 8.7 °C 1012.4 hPa ESE 3.5 km/h 11.1 km/h 56% 0.0 mm 225 W/m2
15:34 17.8 °C 8.7 °C 1012.4 hPa East 1.1 km/h 8.7 km/h 55% 0.0 mm 193 W/m2
15:39 18.2 °C 9.0 °C 1012.4 hPa Calm   8.7 km/h 55% 0.0 mm 182 W/m2
15:40 18.3 °C 9.1 °C 1012.4 hPa Calm   8.7 km/h 55% 0.0 mm 171 W/m2
15:45 19.1 °C 9.6 °C 1012.8 hPa Calm   3.5 km/h 54% 0.0 mm 120 W/m2
15:50 18.4 °C 9.2 °C 1012.4 hPa Calm   1.1 km/h 55% 0.0 mm 74 W/m2
15:55 17.2 °C 8.6 °C 1012.4 hPa Calm   2.6 km/h 57% 0.0 mm 63 W/m2
15:59 16.8 °C 9.2 °C 1012.4 hPa Calm   2.6 km/h 61% 0.0 mm 64 W/m2
16:04 16.5 °C 9.2 °C 1012.4 hPa Calm   2.6 km/h 62% 0.0 mm 68 W/m2
16:09 16.1 °C 8.8 °C 1012.4 hPa Calm   5.0 km/h 62% 0.0 mm 63 W/m2
16:14 15.9 °C 9.1 °C 1012.1 hPa Calm   5.0 km/h 64% 0.0 mm 60 W/m2
16:19 15.8 °C 9.2 °C 1012.1 hPa ENE 3.5 km/h 7.2 km/h 65% 0.0 mm 68 W/m2
16:24 15.7 °C 9.2 °C 1012.1 hPa Calm   7.2 km/h 65% 0.0 mm 66 W/m2
16:29 15.7 °C 9.4 °C 1012.4 hPa Calm   7.2 km/h 66% 0.0 mm 85 W/m2
16:34 16.0 °C 8.9 °C 1012.1 hPa Calm   7.2 km/h 63% 0.0 mm 74 W/m2
16:39 16.1 °C 9.1 °C 1012.4 hPa Calm   3.5 km/h 63% 0.0 mm 61 W/m2
16:50 15.9 °C 9.1 °C 1012.1 hPa ENE 5.0 km/h 7.2 km/h 64% 0.0 mm 38 W/m2
16:52 15.8 °C 9.0 °C 1012.1 hPa ENE 2.6 km/h 9.7 km/h 64% 0.0 mm 35 W/m2
16:57 15.5 °C 9.2 °C 1012.1 hPa Calm   9.7 km/h 66% 0.0 mm 30 W/m2
17:02 15.3 °C 9.2 °C 1012.1 hPa Calm   7.2 km/h 67% 0.0 mm 28 W/m2
17:07 15.3 °C 9.0 °C 1012.1 hPa Calm   5.0 km/h 66% 0.0 mm 28 W/m2
17:12 15.3 °C 9.0 °C 1012.1 hPa Calm   5.0 km/h 66% 0.0 mm 27 W/m2
17:17 15.3 °C 9.0 °C 1012.4 hPa Calm   3.5 km/h 66% 0.0 mm 23 W/m2
17:22 15.3 °C 8.6 °C 1012.1 hPa NNW 1.1 km/h 3.5 km/h 64% 0.0 mm 17 W/m2
17:27 15.3 °C 8.1 °C 1012.4 hPa NNW 3.5 km/h 7.2 km/h 62% 0.0 mm 9 W/m2
17:32 15.3 °C 7.8 °C 1012.1 hPa NNW 1.1 km/h 7.2 km/h 61% 0.0 mm 4 W/m2
17:37 15.2 °C 7.5 °C 1012.1 hPa North 1.1 km/h 7.2 km/h 60% 0.0 mm 2 W/m2
17:42 15.1 °C 7.2 °C 1012.1 hPa North 2.6 km/h 5.0 km/h 59% 0.0 mm 0 W/m2
17:47 15.0 °C 7.3 °C 1012.4 hPa North 5.0 km/h 6.1 km/h 60% 0.0 mm 0 W/m2
17:52 14.9 °C 7.4 °C 1012.4 hPa NNE 1.1 km/h 7.2 km/h 61% 0.0 mm 0 W/m2
17:57 14.8 °C 7.6 °C 1012.8 hPa North 2.6 km/h 7.2 km/h 62% 0.0 mm 0 W/m2
18:02 14.8 °C 7.6 °C 1012.8 hPa NNW 3.5 km/h 11.1 km/h 62% 0.0 mm 0 W/m2
18:07 14.8 °C 7.3 °C 1012.8 hPa Calm   11.1 km/h 61% 0.0 mm 0 W/m2
18:12 14.8 °C 7.6 °C 1012.8 hPa Calm   11.1 km/h 62% 0.0 mm 0 W/m2
18:17 14.7 °C 7.5 °C 1012.8 hPa NNE 6.1 km/h 8.7 km/h 62% 0.0 mm 0 W/m2
18:22 14.7 °C 7.7 °C 1012.8 hPa NNE 5.0 km/h 8.7 km/h 63% 0.0 mm 0 W/m2
18:27 14.8 °C 7.6 °C 1012.8 hPa NNW 7.2 km/h 19.5 km/h 62% 0.0 mm 0 W/m2
18:32 14.9 °C 7.4 °C 1012.8 hPa NNW 13.4 km/h 19.5 km/h 61% 0.0 mm 0 W/m2
18:37 15.1 °C 7.2 °C 1012.8 hPa NNW 11.1 km/h 18.3 km/h 59% 0.0 mm 0 W/m2
18:42 15.1 °C 7.2 °C 1012.8 hPa NNW 14.8 km/h 25.6 km/h 59% 0.0 mm 0 W/m2
18:47 15.1 °C 6.9 °C 1012.8 hPa NW 9.7 km/h 25.6 km/h 58% 0.0 mm 0 W/m2
18:52 15.1 °C 6.9 °C 1012.4 hPa NW 15.8 km/h 20.9 km/h 58% 0.0 mm 0 W/m2
18:57 15.0 °C 7.1 °C 1012.4 hPa NNW 8.7 km/h 18.3 km/h 59% 0.0 mm 0 W/m2
19:02 14.8 °C 7.3 °C 1012.8 hPa NNW 8.7 km/h 18.3 km/h 61% 0.0 mm 0 W/m2
19:07 14.6 °C 7.4 °C 1012.8 hPa NNW 6.1 km/h 17.2 km/h 62% 0.0 mm 0 W/m2
19:12 14.6 °C 7.4 °C 1012.8 hPa North 5.0 km/h 17.2 km/h 62% 0.0 mm 0 W/m2
19:17 14.5 °C 7.3 °C 1012.8 hPa NNW 3.5 km/h 17.2 km/h 62% 0.0 mm 0 W/m2
19:35 14.0 °C 7.3 °C 1012.8 hPa North 3.5 km/h 7.2 km/h 64% 0.0 mm 0 W/m2
19:40 13.8 °C 7.3 °C 1012.8 hPa North 6.1 km/h 8.7 km/h 65% 0.0 mm 0 W/m2
19:46 13.6 °C 7.4 °C 1012.8 hPa North 6.1 km/h 8.7 km/h 66% 0.0 mm 0 W/m2
19:51 13.6 °C 7.4 °C 1013.1 hPa North 6.1 km/h 8.7 km/h 66% 0.0 mm 0 W/m2
19:56 13.6 °C 7.4 °C 1013.1 hPa North 2.6 km/h 9.7 km/h 66% 0.0 mm 0 W/m2
20:01 13.6 °C 7.4 °C 1012.8 hPa NNE 3.5 km/h 9.7 km/h 66% 0.0 mm 0 W/m2
20:06 13.6 °C 7.4 °C 1013.1 hPa North 2.6 km/h 9.7 km/h 66% 0.0 mm 0 W/m2
20:11 13.8 °C 7.3 °C 1012.8 hPa North 5.0 km/h 9.7 km/h 65% 0.0 mm 0 W/m2
20:16 13.8 °C 7.3 °C 1012.8 hPa NNE 5.0 km/h 9.7 km/h 65% 0.0 mm 0 W/m2
20:21 13.6 °C 7.4 °C 1012.8 hPa NNE 1.1 km/h 8.7 km/h 66% 0.0 mm 0 W/m2
20:26 13.6 °C 7.4 °C 1012.8 hPa Calm   7.2 km/h 66% 0.0 mm 0 W/m2
20:31 13.6 °C 7.4 °C 1012.8 hPa Calm   5.0 km/h 66% 0.0 mm 0 W/m2
20:36 13.6 °C 7.4 °C 1012.8 hPa NNW 3.5 km/h 6.1 km/h 66% 0.0 mm 0 W/m2
20:41 13.6 °C 7.4 °C 1012.4 hPa North 6.1 km/h 11.1 km/h 66% 0.0 mm 0 W/m2
20:46 13.8 °C 7.3 °C 1012.4 hPa North 3.5 km/h 11.1 km/h 65% 0.0 mm 0 W/m2
20:51 13.9 °C 7.4 °C 1012.1 hPa North 7.2 km/h 15.8 km/h 65% 0.0 mm 0 W/m2
20:56 14.1 °C 7.4 °C 1012.4 hPa NNW 12.2 km/h 23.3 km/h 64% 0.0 mm 0 W/m2
21:01 14.2 °C 7.5 °C 1012.4 hPa NNW 9.7 km/h 23.3 km/h 64% 0.0 mm 0 W/m2
21:06 14.1 °C 7.4 °C 1012.4 hPa North 7.2 km/h 17.2 km/h 64% 0.0 mm 0 W/m2
21:11 14.1 °C 7.4 °C 1012.4 hPa North 5.0 km/h 13.4 km/h 64% 0.0 mm 0 W/m2
21:16 13.9 °C 7.4 °C 1012.4 hPa NNW 8.7 km/h 13.4 km/h 65% 0.0 mm 0 W/m2
21:22 13.9 °C 7.7 °C 1012.4 hPa NNW 11.1 km/h 20.9 km/h 66% 0.0 mm 0 W/m2
21:27 14.0 °C 7.6 °C 1012.4 hPa NNW 11.1 km/h 20.9 km/h 65% 0.0 mm 0 W/m2
21:32 14.0 °C 7.6 °C 1012.8 hPa NNW 7.2 km/h 20.9 km/h 65% 0.0 mm 0 W/m2
21:37 14.0 °C 7.6 °C 1012.8 hPa North 7.2 km/h 17.2 km/h 65% 0.0 mm 0 W/m2
21:42 14.1 °C 7.6 °C 1012.4 hPa North 12.2 km/h 28.0 km/h 65% 0.0 mm 0 W/m2
21:47 14.3 °C 7.8 °C 1012.1 hPa NNW 20.9 km/h 28.0 km/h 65% 0.0 mm 0 W/m2
21:52 14.5 °C 8.0 °C 1012.1 hPa NNW 13.4 km/h 27.0 km/h 65% 0.0 mm 0 W/m2
21:57 14.5 °C 8.2 °C 1011.7 hPa NNW 12.2 km/h 28.0 km/h 66% 0.0 mm 0 W/m2
22:02 14.5 °C 8.0 °C 1011.7 hPa NNW 11.1 km/h 28.0 km/h 65% 0.0 mm 0 W/m2
22:08 14.5 °C 8.0 °C 1012.1 hPa North 8.7 km/h 24.5 km/h 65% 0.0 mm 0 W/m2
22:13 14.4 °C 8.1 °C 1011.7 hPa North 8.7 km/h 24.5 km/h 66% 0.0 mm 0 W/m2
22:18 14.4 °C 8.1 °C 1012.1 hPa North 11.1 km/h 21.9 km/h 66% 0.0 mm 0 W/m2
22:23 14.3 °C 8.1 °C 1011.7 hPa North 8.7 km/h 21.9 km/h 66% 0.0 mm 0 W/m2
22:28 14.3 °C 8.1 °C 1011.7 hPa North 9.7 km/h 19.5 km/h 66% 0.0 mm 0 W/m2
22:33 14.3 °C 8.1 °C 1011.7 hPa North 12.2 km/h 19.5 km/h 66% 0.0 mm 0 W/m2
22:38 14.4 °C 8.1 °C 1011.7 hPa North 8.7 km/h 20.9 km/h 66% 0.0 mm 0 W/m2
22:43 14.0 °C 8.0 °C 1011.7 hPa NNW 11.1 km/h 20.9 km/h 67% 0.0 mm 0 W/m2
22:48 13.8 °C 8.2 °C 1012.1 hPa North 14.8 km/h 21.9 km/h 69% 0.0 mm 0 W/m2
22:53 14.4 °C 8.6 °C 1012.1 hPa North 13.4 km/h 25.6 km/h 68% 0.0 mm 0 W/m2
22:58 14.7 °C 8.7 °C 1012.1 hPa NNW 11.1 km/h 25.6 km/h 67% 0.0 mm 0 W/m2
23:03 14.9 °C 8.6 °C 1012.1 hPa NNW 12.2 km/h 25.6 km/h 66% 0.0 mm 0 W/m2
23:08 14.8 °C 8.5 °C 1012.1 hPa North 15.8 km/h 25.6 km/h 66% 0.0 mm 0 W/m2
23:13 14.7 °C 8.4 °C 1011.7 hPa NNW 12.2 km/h 25.6 km/h 66% 0.0 mm 0 W/m2
23:18 14.5 °C 8.4 °C 1011.7 hPa NNW 7.2 km/h 25.6 km/h 67% 0.0 mm 0 W/m2
23:23 14.4 °C 8.3 °C 1011.7 hPa North 14.8 km/h 29.4 km/h 67% 0.0 mm 0 W/m2
23:28 14.4 °C 8.3 °C 1011.4 hPa North 13.4 km/h 29.4 km/h 67% 0.0 mm 0 W/m2
23:33 14.6 °C 8.6 °C 1011.4 hPa North 13.4 km/h 23.3 km/h 67% 0.0 mm 0 W/m2
23:38 14.7 °C 8.7 °C 1011.1 hPa North 11.1 km/h 23.3 km/h 67% 0.0 mm 0 W/m2
23:43 14.5 °C 8.4 °C 1011.4 hPa North 9.7 km/h 23.3 km/h 67% 0.0 mm 0 W/m2
23:48 14.5 °C 8.7 °C 1011.1 hPa North 7.2 km/h 17.2 km/h 68% 0.0 mm 0 W/m2
23:53 14.6 °C 8.8 °C 1011.1 hPa NNE 5.0 km/h 18.3 km/h 68% 0.0 mm 0 W/m2
23:59 14.5 °C 8.7 °C 1011.1 hPa NNE 3.5 km/h 17.2 km/h 68% 0.0 mm 0 W/m2
Northern Hawkes Bay. New Zealand Historic Data
Compliments of Weather Underground - 2.25 mb